Time;durP1;ratioP1;P1;durP2;ratioP2;P2;SDS_P1;SDS_P2;PMS_P1;PMS_P2;Temp;Humidity;BMP_temperature;BMP_pressure;BME280_temperature;BME280_humidity;BME280_pressure;Samples;Min_cycle;Max_cycle;Signal;HPM_P1;HPM_P2
2022/04/05 00:00:07;;;;;;;368.50;136.73;;;;;;;-144.77;100.00;59014.09;340740;29;1707;-70
2022/04/05 00:00:18;;;;;;;367.27;138.45;;;;;;;-144.77;100.00;59014.09;342126;28;1623;-70
2022/04/05 00:00:29;;;;;;;367.53;139.67;;;;;;;-144.77;100.00;59014.09;341184;29;1038;-70
2022/04/05 00:00:39;;;;;;;370.40;142.43;;;;;;;-144.77;100.00;59014.09;341048;29;1376;-70
2022/04/05 00:00:49;;;;;;;370.23;141.73;;;;;;;-144.77;100.00;59014.09;341178;29;838;-70
2022/04/05 00:01:00;;;;;;;369.85;142.43;;;;;;;-144.77;100.00;59014.09;342549;28;751;-70
2022/04/05 00:01:10;;;;;;;370.17;141.80;;;;;;;-144.77;100.00;59014.09;341051;28;1227;-69
2022/04/05 00:01:21;;;;;;;370.77;141.10;;;;;;;-144.77;100.00;59014.09;339844;29;1219;-69
2022/04/05 00:01:31;;;;;;;373.63;144.53;;;;;;;-144.77;100.00;59014.09;340605;29;1551;-69
2022/04/05 00:01:42;;;;;;;371.77;142.05;;;;;;;-144.77;100.00;59014.09;342545;28;1174;-69
2022/04/05 00:01:52;;;;;;;372.93;141.80;;;;;;;-144.77;100.00;59014.09;340999;29;1290;-69
2022/04/05 00:02:03;;;;;;;371.98;139.30;;;;;;;-144.77;100.00;59014.09;341004;29;1201;-70
2022/04/05 00:02:13;;;;;;;371.47;140.33;;;;;;;-144.77;100.00;59014.09;338037;29;1762;-70
2022/04/05 00:02:24;;;;;;;369.58;141.68;;;;;;;-144.77;100.00;59014.09;341276;28;1019;-70
2022/04/05 00:02:35;;;;;;;370.05;142.65;;;;;;;-144.77;100.00;59014.09;341753;28;1620;-70
2022/04/05 00:02:45;;;;;;;372.10;144.47;;;;;;;-144.77;100.00;59014.09;343888;28;920;-70
2022/04/05 00:02:56;;;;;;;373.73;141.97;;;;;;;-144.77;100.00;59014.09;342500;28;880;-70
2022/04/05 00:03:06;;;;;;;371.95;142.13;;;;;;;-144.77;100.00;59014.09;338609;29;826;-70
2022/04/05 00:03:17;;;;;;;371.67;142.67;;;;;;;-144.77;100.00;59014.09;339873;29;1179;-69
2022/04/05 00:03:27;;;;;;;370.73;142.32;;;;;;;-144.77;100.00;59014.09;341048;29;1229;-69
2022/04/05 00:03:37;;;;;;;371.27;141.00;;;;;;;-144.77;100.00;59014.09;341108;28;1123;-69
2022/04/05 00:03:48;;;;;;;370.70;139.75;;;;;;;-144.77;100.00;59014.09;341109;28;926;-69
2022/04/05 00:03:58;;;;;;;372.90;140.33;;;;;;;-144.77;100.00;59014.09;341145;29;1433;-69
2022/04/05 00:04:10;;;;;;;372.92;141.52;;;;;;;-144.77;100.00;59014.09;342198;28;1823;-70
2022/04/05 00:04:20;;;;;;;373.17;140.65;;;;;;;-144.77;100.00;59014.09;340937;29;2413;-70
2022/04/05 00:04:31;;;;;;;372.33;140.82;;;;;;;-144.77;100.00;59014.09;342410;28;1223;-70
2022/04/05 00:04:41;;;;;;;374.20;142.97;;;;;;;-144.77;100.00;59014.09;340883;29;1313;-70
2022/04/05 00:04:52;;;;;;;374.42;145.73;;;;;;;-144.77;100.00;59014.09;342550;28;865;-70
2022/04/05 00:05:02;;;;;;;373.73;144.88;;;;;;;-144.77;100.00;59014.09;340590;29;1662;-70
2022/04/05 00:05:13;;;;;;;372.33;141.57;;;;;;;-144.77;100.00;59014.09;340051;28;1176;-70
2022/04/05 00:05:23;;;;;;;373.30;141.97;;;;;;;-144.77;100.00;59014.09;341277;29;853;-70
2022/04/05 00:05:34;;;;;;;374.87;143.87;;;;;;;-144.77;100.00;59014.09;341135;29;853;-70
2022/04/05 00:05:44;;;;;;;375.17;146.80;;;;;;;-144.77;100.00;59014.09;341158;29;865;-69
2022/04/05 00:05:54;;;;;;;374.38;146.00;;;;;;;-144.77;100.00;59014.09;339775;29;901;-69
2022/04/05 00:06:05;;;;;;;373.50;144.47;;;;;;;-144.77;100.00;59014.09;338571;29;874;-69
2022/04/05 00:06:15;;;;;;;372.63;143.45;;;;;;;-144.77;100.00;59014.09;339438;29;1620;-69
2022/04/05 00:06:25;;;;;;;372.77;144.17;;;;;;;-144.77;100.00;59014.09;339097;29;1816;-69
2022/04/05 00:06:36;;;;;;;373.40;144.73;;;;;;;-144.77;100.00;59014.09;339500;29;1524;-69
2022/04/05 00:06:46;;;;;;;375.10;144.37;;;;;;;-144.77;100.00;59014.09;341107;29;763;-69
2022/04/05 00:06:57;;;;;;;376.58;147.10;;;;;;;-144.77;100.00;59014.09;339776;29;1223;-69
2022/04/05 00:07:07;;;;;;;376.60;148.53;;;;;;;-144.77;100.00;59014.09;339175;29;1382;-69
2022/04/05 00:07:17;;;;;;;374.60;148.80;;;;;;;-144.77;100.00;59014.09;338445;29;1179;-69
2022/04/05 00:07:28;;;;;;;373.02;146.32;;;;;;;-144.77;100.00;59014.09;338411;29;1173;-69
2022/04/05 00:07:38;;;;;;;372.75;145.77;;;;;;;-144.77;100.00;59014.09;339549;29;862;-69
2022/04/05 00:07:49;;;;;;;373.80;144.97;;;;;;;-144.77;100.00;59014.09;339748;29;1299;-69
2022/04/05 00:07:59;;;;;;;374.70;144.57;;;;;;;-144.77;100.00;59014.09;342462;28;920;-69
2022/04/05 00:08:10;;;;;;;376.00;145.70;;;;;;;-144.77;100.00;59014.09;342389;28;1742;-69
2022/04/05 00:08:20;;;;;;;378.37;148.13;;;;;;;-144.77;100.00;59014.09;343284;28;1691;-69
2022/04/05 00:08:30;;;;;;;379.27;149.43;;;;;;;-144.77;100.00;59014.09;342485;28;1365;-69
2022/04/05 00:08:41;;;;;;;377.90;147.33;;;;;;;-144.77;100.00;59014.09;342140;28;893;-69
2022/04/05 00:08:51;;;;;;;375.73;145.68;;;;;;;-144.77;100.00;59014.09;342342;28;1731;-69
2022/04/05 00:09:02;;;;;;;374.93;145.43;;;;;;;-144.77;100.00;59014.09;341182;29;759;-69
2022/04/05 00:09:12;;;;;;;377.25;148.07;;;;;;;-144.77;100.00;59014.09;339821;29;1453;-71
2022/04/05 00:09:23;;;;;;;375.57;147.33;;;;;;;-144.77;100.00;59014.09;341117;29;939;-71
2022/04/05 00:09:33;;;;;;;375.27;146.57;;;;;;;-144.77;100.00;59014.09;341093;29;1052;-71
2022/04/05 00:09:44;;;;;;;375.93;143.13;;;;;;;-144.77;100.00;59014.09;339571;29;1660;-71
2022/04/05 00:09:54;;;;;;;378.70;144.90;;;;;;;-144.77;100.00;59014.09;340507;29;1714;-71
2022/04/05 00:10:05;;;;;;;377.00;142.65;;;;;;;-144.77;100.00;59014.09;339809;29;865;-71
2022/04/05 00:10:15;;;;;;;377.63;146.27;;;;;;;-144.77;100.00;59014.09;340910;28;2122;-71
2022/04/05 00:10:26;;;;;;;375.10;144.88;;;;;;;-144.77;100.00;59014.09;340907;29;1394;-71
2022/04/05 00:10:36;;;;;;;376.73;147.10;;;;;;;-144.77;100.00;59014.09;342343;28;1659;-70
2022/04/05 00:10:47;;;;;;;371.95;142.20;;;;;;;-144.77;100.00;59014.09;342412;28;1702;-70
2022/04/05 00:10:57;;;;;;;371.70;141.03;;;;;;;-144.77;100.00;59014.09;342474;28;812;-70
2022/04/05 00:11:07;;;;;;;371.95;139.95;;;;;;;-144.77;100.00;59014.09;342520;28;1050;-70
2022/04/05 00:11:18;;;;;;;374.57;142.67;;;;;;;-144.77;100.00;59014.09;342608;28;885;-70
2022/04/05 00:11:28;;;;;;;378.00;146.95;;;;;;;-144.77;100.00;59014.09;340577;29;1420;-70
2022/04/05 00:11:38;;;;;;;378.33;146.97;;;;;;;-144.77;100.00;59014.09;341126;29;854;-70
2022/04/05 00:11:49;;;;;;;377.23;147.00;;;;;;;-144.77;100.00;59014.09;343726;28;1433;-70
2022/04/05 00:11:59;;;;;;;376.75;146.55;;;;;;;-144.77;100.00;59014.09;343584;28;1154;-70
2022/04/05 00:12:10;;;;;;;376.50;149.37;;;;;;;-144.77;100.00;59014.09;342316;28;1561;-70
2022/04/05 00:12:20;;;;;;;376.08;146.95;;;;;;;-144.77;100.00;59014.09;340833;29;1218;-70
2022/04/05 00:12:30;;;;;;;373.37;144.90;;;;;;;-144.77;100.00;59014.09;342380;28;1180;-70
2022/04/05 00:12:41;;;;;;;372.50;142.73;;;;;;;-144.77;100.00;59014.09;341194;29;849;-70
2022/04/05 00:12:52;;;;;;;372.48;143.40;;;;;;;-144.77;100.00;59014.09;342477;28;925;-70
2022/04/05 00:13:05;;;;;;;373.40;144.73;;;;;;;-144.77;100.00;59014.09;339747;29;1202;-70
2022/04/05 00:13:16;;;;;;;373.15;143.30;;;;;;;-144.77;100.00;59014.09;339849;29;842;-70
2022/04/05 00:13:26;;;;;;;372.60;141.90;;;;;;;-144.77;100.00;59014.09;339797;29;810;-70
2022/04/05 00:13:38;;;;;;;373.10;140.30;;;;;;;-144.77;100.00;59014.09;337290;29;1218;-70
2022/04/05 00:13:48;;;;;;;375.75;145.02;;;;;;;-144.77;100.00;59014.09;341019;28;1263;-70
2022/04/05 00:14:00;;;;;;;374.80;145.27;;;;;;;-144.77;100.00;59014.09;342433;28;1340;-70
2022/04/05 00:14:10;;;;;;;374.48;146.25;;;;;;;-144.77;100.00;59014.09;339368;29;1637;-71
2022/04/05 00:14:21;;;;;;;372.60;143.37;;;;;;;-144.77;100.00;59014.09;339659;29;1768;-70
2022/04/05 00:14:31;;;;;;;373.02;142.02;;;;;;;-144.77;100.00;59014.09;341156;29;919;-70
2022/04/05 00:14:42;;;;;;;374.20;141.37;;;;;;;-144.77;100.00;59014.09;340641;28;1860;-70
2022/04/05 00:14:52;;;;;;;376.67;143.10;;;;;;;-144.77;100.00;59014.09;341754;28;1422;-70
2022/04/05 00:15:05;;;;;;;378.67;147.50;;;;;;;-144.77;100.00;59014.09;339816;28;1368;-70
2022/04/05 00:15:15;;;;;;;376.67;147.15;;;;;;;-144.77;100.00;59014.09;341024;29;1423;-70
2022/04/05 00:15:25;;;;;;;376.33;146.70;;;;;;;-144.77;100.00;59014.09;339839;29;862;-70
2022/04/05 00:15:36;;;;;;;376.15;145.25;;;;;;;-144.77;100.00;59014.09;339960;29;1336;-70
2022/04/05 00:15:46;;;;;;;374.90;145.13;;;;;;;-144.77;100.00;59014.09;341010;28;1066;-70
2022/04/05 00:15:57;;;;;;;373.80;145.38;;;;;;;-144.77;100.00;59014.09;341112;29;911;-70
2022/04/05 00:16:07;;;;;;;373.20;145.60;;;;;;;-144.77;100.00;59014.09;339588;29;1760;-70
2022/04/05 00:16:17;;;;;;;375.55;145.57;;;;;;;-144.77;100.00;59014.09;339728;29;1763;-70
2022/04/05 00:16:28;;;;;;;374.33;143.57;;;;;;;-144.77;100.00;59014.09;339536;29;1524;-70
2022/04/05 00:16:39;;;;;;;373.48;141.82;;;;;;;-144.77;100.00;59014.09;340993;29;1936;-70
2022/04/05 00:16:49;;;;;;;374.13;143.03;;;;;;;-144.77;100.00;59014.09;340563;28;1581;-70
2022/04/05 00:16:59;;;;;;;375.98;146.52;;;;;;;-144.77;100.00;59014.09;342438;28;959;-70
2022/04/05 00:17:10;;;;;;;376.13;145.87;;;;;;;-144.77;100.00;59014.09;341339;29;893;-70
2022/04/05 00:17:21;;;;;;;374.17;144.95;;;;;;;-144.77;100.00;59014.09;341039;29;1166;-70
2022/04/05 00:17:32;;;;;;;373.38;141.45;;;;;;;-144.77;100.00;59014.09;339653;29;1066;-70
2022/04/05 00:17:43;;;;;;;374.20;142.90;;;;;;;-144.77;100.00;59014.09;339943;29;892;-70
2022/04/05 00:17:53;;;;;;;374.25;142.60;;;;;;;-144.77;100.00;59014.09;339844;29;941;-70
2022/04/05 00:18:04;;;;;;;374.57;144.40;;;;;;;-144.77;100.00;59014.09;341138;29;759;-70
2022/04/05 00:18:14;;;;;;;374.92;144.05;;;;;;;-144.77;100.00;59014.09;342988;28;1733;-70
2022/04/05 00:18:25;;;;;;;375.80;145.57;;;;;;;-144.77;100.00;59014.09;343860;28;912;-70
2022/04/05 00:18:37;;;;;;;374.58;144.48;;;;;;;-144.77;100.00;59014.09;343745;28;1338;-70
2022/04/05 00:18:47;;;;;;;373.52;142.35;;;;;;;-144.77;100.00;59014.09;343779;28;864;-70
2022/04/05 00:18:57;;;;;;;374.10;141.97;;;;;;;-144.77;100.00;59014.09;341044;29;1310;-70
2022/04/05 00:19:08;;;;;;;373.57;141.97;;;;;;;-144.77;100.00;59014.09;339867;29;1258;-70
2022/04/05 00:19:22;;;;;;;372.83;144.63;;;;;;;-144.77;100.00;59014.09;341170;29;818;-70
2022/04/05 00:19:33;;;;;;;374.02;145.50;;;;;;;-144.77;100.00;59014.09;341379;28;1328;-69
2022/04/05 00:19:43;;;;;;;374.33;146.30;;;;;;;-144.77;100.00;59014.09;341942;28;916;-69
2022/04/05 00:19:53;;;;;;;374.73;147.40;;;;;;;-144.77;100.00;59014.09;341559;28;1687;-69
2022/04/05 00:20:04;;;;;;;375.43;147.87;;;;;;;-144.77;100.00;59014.09;341090;28;1339;-69
2022/04/05 00:20:15;;;;;;;375.35;144.82;;;;;;;-144.77;100.00;59014.09;341165;28;1649;-69
2022/04/05 00:20:28;;;;;;;374.75;141.65;;;;;;;-144.77;100.00;59014.09;342189;28;901;-69
2022/04/05 00:20:39;;;;;;;371.58;140.75;;;;;;;-144.77;100.00;59014.09;342480;28;993;-69
2022/04/05 00:20:50;;;;;;;371.50;142.07;;;;;;;-144.77;100.00;59014.09;342010;28;1371;-69
2022/04/05 00:21:00;;;;;;;373.83;144.33;;;;;;;-144.77;100.00;59014.09;341123;29;814;-69
2022/04/05 00:21:11;;;;;;;375.87;146.33;;;;;;;-144.77;100.00;59014.09;341193;29;877;-69
2022/04/05 00:21:21;;;;;;;375.67;145.20;;;;;;;-144.77;100.00;59014.09;341055;29;1582;-69
2022/04/05 00:21:31;;;;;;;374.50;145.10;;;;;;;-144.77;100.00;59014.09;341982;28;1515;-69
2022/04/05 00:21:43;;;;;;;373.58;144.43;;;;;;;-144.77;100.00;59014.09;342419;28;800;-69
2022/04/05 00:21:54;;;;;;;374.52;144.20;;;;;;;-144.77;100.00;59014.09;342548;28;637;-69
2022/04/05 00:22:04;;;;;;;374.57;140.83;;;;;;;-144.77;100.00;59014.09;341052;29;1366;-69
2022/04/05 00:22:14;;;;;;;373.52;139.00;;;;;;;-144.77;100.00;59014.09;343581;28;1759;-69
2022/04/05 00:22:25;;;;;;;373.33;139.93;;;;;;;-144.77;100.00;59014.09;342573;28;735;-69
2022/04/05 00:22:35;;;;;;;373.43;141.03;;;;;;;-144.77;100.00;59014.09;343399;28;1311;-69
2022/04/05 00:22:46;;;;;;;373.67;141.50;;;;;;;-144.77;100.00;59014.09;341178;29;810;-69
2022/04/05 00:22:58;;;;;;;372.73;141.13;;;;;;;-144.77;100.00;59014.09;341156;29;901;-69
2022/04/05 00:23:08;;;;;;;370.95;139.93;;;;;;;-144.77;100.00;59014.09;342427;28;1309;-69
2022/04/05 00:23:19;;;;;;;372.50;141.03;;;;;;;-144.77;100.00;59014.09;343767;28;1170;-69
2022/04/05 00:23:30;;;;;;;371.88;139.90;;;;;;;-144.77;100.00;59014.09;343788;28;868;-69
2022/04/05 00:23:40;;;;;;;374.13;141.77;;;;;;;-144.77;100.00;59014.09;342455;28;846;-69
2022/04/05 00:23:51;;;;;;;373.80;141.47;;;;;;;-144.77;100.00;59014.09;342493;28;1372;-69
2022/04/05 00:24:01;;;;;;;374.58;141.95;;;;;;;-144.77;100.00;59014.09;342489;28;743;-69
2022/04/05 00:24:12;;;;;;;372.60;140.77;;;;;;;-144.77;100.00;59014.09;340321;29;1758;-69
2022/04/05 00:24:22;;;;;;;372.07;140.30;;;;;;;-144.77;100.00;59014.09;341412;28;1412;-69
2022/04/05 00:24:33;;;;;;;371.50;138.90;;;;;;;-144.77;100.00;59014.09;341157;29;929;-69
2022/04/05 00:24:43;;;;;;;371.33;137.60;;;;;;;-144.77;100.00;59014.09;341100;29;837;-69
2022/04/05 00:24:54;;;;;;;373.83;138.73;;;;;;;-144.77;100.00;59014.09;341069;28;1434;-70
2022/04/05 00:25:04;;;;;;;373.35;137.75;;;;;;;-144.77;100.00;59014.09;341065;29;853;-70
2022/04/05 00:25:15;;;;;;;370.65;137.20;;;;;;;-144.77;100.00;59014.09;339840;29;887;-70
2022/04/05 00:25:25;;;;;;;368.73;136.73;;;;;;;-144.77;100.00;59014.09;342424;28;806;-70
2022/04/05 00:25:36;;;;;;;370.63;140.63;;;;;;;-144.77;100.00;59014.09;343729;28;1221;-70
2022/04/05 00:25:46;;;;;;;369.97;140.50;;;;;;;-144.77;100.00;59014.09;341143;29;950;-70
2022/04/05 00:25:56;;;;;;;370.88;139.40;;;;;;;-144.77;100.00;59014.09;343726;28;1200;-70
2022/04/05 00:26:07;;;;;;;370.53;139.00;;;;;;;-144.77;100.00;59014.09;340819;29;1370;-70
2022/04/05 00:26:17;;;;;;;371.88;140.18;;;;;;;-144.77;100.00;59014.09;341079;29;1798;-70
2022/04/05 00:26:27;;;;;;;371.07;141.87;;;;;;;-144.77;100.00;59014.09;343262;28;1714;-70
2022/04/05 00:26:38;;;;;;;369.92;139.98;;;;;;;-144.77;100.00;59014.09;342274;28;1582;-70
2022/04/05 00:26:48;;;;;;;371.37;140.37;;;;;;;-144.77;100.00;59014.09;343696;28;1307;-70
2022/04/05 00:26:59;;;;;;;372.17;141.70;;;;;;;-144.77;100.00;59014.09;339714;29;1252;-70
2022/04/05 00:27:09;;;;;;;375.17;144.13;;;;;;;-144.77;100.00;59014.09;339728;29;1467;-70
2022/04/05 00:27:19;;;;;;;374.37;144.27;;;;;;;-144.77;100.00;59014.09;339649;29;835;-70
2022/04/05 00:27:30;;;;;;;373.90;143.38;;;;;;;-144.77;100.00;59014.09;340864;29;1316;-70
2022/04/05 00:27:40;;;;;;;372.67;143.77;;;;;;;-144.77;100.00;59014.09;341123;29;1066;-70
2022/04/05 00:27:52;;;;;;;373.80;143.73;;;;;;;-144.77;100.00;59014.09;341124;29;889;-70
2022/04/05 00:28:03;;;;;;;373.08;142.90;;;;;;;-144.77;100.00;59014.09;339816;29;1241;-70
2022/04/05 00:28:13;;;;;;;373.40;143.98;;;;;;;-144.77;100.00;59014.09;339577;29;1771;-70
2022/04/05 00:28:24;;;;;;;373.60;142.47;;;;;;;-144.77;100.00;59014.09;342473;28;912;-70
2022/04/05 00:28:34;;;;;;;375.63;143.33;;;;;;;-144.77;100.00;59014.09;342436;28;1007;-70
2022/04/05 00:28:44;;;;;;;376.17;143.85;;;;;;;-144.77;100.00;59014.09;343690;28;1315;-70
2022/04/05 00:28:55;;;;;;;374.53;142.87;;;;;;;-144.77;100.00;59014.09;342344;28;1302;-70
2022/04/05 00:29:05;;;;;;;374.25;142.18;;;;;;;-144.77;100.00;59014.09;340493;29;1670;-70
2022/04/05 00:29:16;;;;;;;372.33;138.63;;;;;;;-144.77;100.00;59014.09;340606;28;1577;-70
2022/04/05 00:29:26;;;;;;;373.00;139.82;;;;;;;-144.77;100.00;59014.09;342299;28;1623;-70
2022/04/05 00:29:36;;;;;;;372.63;138.70;;;;;;;-144.77;100.00;59014.09;341091;29;977;-70
2022/04/05 00:29:47;;;;;;;373.05;140.50;;;;;;;-144.77;100.00;59014.09;341179;29;957;-70
2022/04/05 00:29:59;;;;;;;376.30;145.70;;;;;;;-144.77;100.00;59014.09;342382;28;1944;-70
2022/04/05 00:30:11;;;;;;;375.33;147.15;;;;;;;-144.77;100.00;59014.09;342422;28;924;-70
2022/04/05 00:30:21;;;;;;;374.92;146.20;;;;;;;-144.77;100.00;59014.09;341104;29;889;-70
2022/04/05 00:30:32;;;;;;;373.75;144.35;;;;;;;-144.77;100.00;59014.09;341091;29;960;-70
2022/04/05 00:30:42;;;;;;;375.37;146.30;;;;;;;-144.77;100.00;59014.09;341062;29;1332;-70
2022/04/05 00:30:52;;;;;;;376.03;145.47;;;;;;;-144.77;100.00;59014.09;341233;29;870;-70
2022/04/05 00:31:03;;;;;;;375.87;145.77;;;;;;;-144.77;100.00;59014.09;343578;28;1272;-70
2022/04/05 00:31:13;;;;;;;373.03;142.17;;;;;;;-144.77;100.00;59014.09;343767;28;1658;-70
2022/04/05 00:31:24;;;;;;;373.23;143.25;;;;;;;-144.77;100.00;59014.09;342554;28;872;-70
2022/04/05 00:31:34;;;;;;;374.57;143.20;;;;;;;-144.77;100.00;59014.09;343432;28;1418;-70
2022/04/05 00:31:45;;;;;;;376.05;146.88;;;;;;;-144.77;100.00;59014.09;341133;29;1058;-70
2022/04/05 00:31:55;;;;;;;372.67;145.90;;;;;;;-144.77;100.00;59014.09;339868;29;810;-70
2022/04/05 00:32:06;;;;;;;370.48;145.05;;;;;;;-144.77;100.00;59014.09;340493;29;835;-70
2022/04/05 00:32:16;;;;;;;371.55;144.55;;;;;;;-144.77;100.00;59014.09;340077;29;1189;-70
2022/04/05 00:32:27;;;;;;;375.77;146.83;;;;;;;-144.77;100.00;59014.09;339850;29;1293;-70
2022/04/05 00:32:37;;;;;;;374.98;146.65;;;;;;;-144.77;100.00;59014.09;339664;29;1197;-70
2022/04/05 00:32:48;;;;;;;374.77;145.10;;;;;;;-144.77;100.00;59014.09;341092;29;1241;-70
2022/04/05 00:32:59;;;;;;;372.20;142.45;;;;;;;-144.77;100.00;59014.09;341069;29;1391;-70
2022/04/05 00:33:09;;;;;;;372.40;142.23;;;;;;;-144.77;100.00;59014.09;341073;29;1370;-70
2022/04/05 00:33:19;;;;;;;373.33;142.80;;;;;;;-144.77;100.00;59014.09;341166;29;906;-71
2022/04/05 00:33:30;;;;;;;374.95;143.38;;;;;;;-144.77;100.00;59014.09;343798;28;818;-71
2022/04/05 00:33:40;;;;;;;377.20;146.50;;;;;;;-144.77;100.00;59014.09;343181;28;727;-71
2022/04/05 00:33:51;;;;;;;376.77;147.70;;;;;;;-144.77;100.00;59014.09;340370;29;1761;-71
2022/04/05 00:34:01;;;;;;;378.10;149.10;;;;;;;-144.77;100.00;59014.09;341013;29;1199;-69
2022/04/05 00:34:12;;;;;;;377.67;145.63;;;;;;;-144.77;100.00;59014.09;340704;28;1587;-69
2022/04/05 00:34:25;;;;;;;377.87;144.03;;;;;;;-144.77;100.00;59014.09;339704;29;1680;-69
2022/04/05 00:34:35;;;;;;;375.67;141.13;;;;;;;-144.77;100.00;59014.09;338929;29;1647;-69
2022/04/05 00:34:46;;;;;;;377.30;142.90;;;;;;;-144.77;100.00;59014.09;339516;29;1214;-69
2022/04/05 00:34:56;;;;;;;378.60;142.52;;;;;;;-144.77;100.00;59014.09;340606;29;1542;-69
2022/04/05 00:35:08;;;;;;;378.60;144.03;;;;;;;-144.77;100.00;59014.09;339645;29;1954;-70
2022/04/05 00:35:18;;;;;;;376.52;145.60;;;;;;;-144.77;100.00;59014.09;338533;29;822;-70
2022/04/05 00:35:28;;;;;;;376.53;147.93;;;;;;;-144.77;100.00;59014.09;338391;29;1198;-70
2022/04/05 00:35:39;;;;;;;377.80;145.90;;;;;;;-144.77;100.00;59014.09;338543;29;969;-70
2022/04/05 00:35:49;;;;;;;378.07;143.87;;;;;;;-144.77;100.00;59014.09;338470;29;810;-70
2022/04/05 00:36:00;;;;;;;375.73;141.52;;;;;;;-144.77;100.00;59014.09;342016;28;830;-70
2022/04/05 00:36:10;;;;;;;373.93;142.17;;;;;;;-144.77;100.00;59014.09;341637;28;1581;-70
2022/04/05 00:36:20;;;;;;;373.77;143.27;;;;;;;-144.77;100.00;59014.09;339877;29;814;-70
2022/04/05 00:36:31;;;;;;;375.38;147.05;;;;;;;-144.77;100.00;59014.09;342115;28;1589;-70
2022/04/05 00:36:41;;;;;;;375.63;148.07;;;;;;;-144.77;100.00;59014.09;340642;29;1218;-70
2022/04/05 00:36:53;;;;;;;376.70;148.63;;;;;;;-144.77;100.00;59014.09;340821;29;1980;-70
2022/04/05 00:37:03;;;;;;;377.52;145.32;;;;;;;-144.77;100.00;59014.09;338220;29;1030;-70
2022/04/05 00:37:14;;;;;;;377.48;143.38;;;;;;;-144.77;100.00;59014.09;339867;29;902;-70
2022/04/05 00:37:24;;;;;;;377.63;142.77;;;;;;;-144.77;100.00;59014.09;341112;29;786;-70
2022/04/05 00:37:35;;;;;;;374.60;141.60;;;;;;;-144.77;100.00;59014.09;340591;29;980;-70
2022/04/05 00:37:45;;;;;;;374.73;141.73;;;;;;;-144.77;100.00;59014.09;340618;29;1346;-70
2022/04/05 00:37:56;;;;;;;376.73;145.13;;;;;;;-144.77;100.00;59014.09;338343;29;1398;-70
2022/04/05 00:38:08;;;;;;;377.55;146.88;;;;;;;-144.77;100.00;59014.09;339640;29;1762;-70
2022/04/05 00:38:19;;;;;;;376.20;145.32;;;;;;;-144.77;100.00;59014.09;341095;29;1343;-70
2022/04/05 00:38:29;;;;;;;375.98;144.93;;;;;;;-144.77;100.00;59014.09;342512;28;842;-70
2022/04/05 00:38:39;;;;;;;377.73;145.57;;;;;;;-144.77;100.00;59014.09;337697;29;1683;-70
2022/04/05 00:38:50;;;;;;;377.23;145.93;;;;;;;-144.77;100.00;59014.09;341111;29;897;-71
2022/04/05 00:39:00;;;;;;;374.97;144.53;;;;;;;-144.77;100.00;59014.09;339766;29;774;-71
2022/04/05 00:39:11;;;;;;;375.10;145.88;;;;;;;-144.77;100.00;59014.09;341093;29;870;-70
2022/04/05 00:39:21;;;;;;;377.37;148.20;;;;;;;-144.77;100.00;59014.09;339760;29;1304;-70
2022/04/05 00:39:32;;;;;;;375.17;145.85;;;;;;;-144.77;100.00;59014.09;339461;29;1421;-70
2022/04/05 00:39:42;;;;;;;373.80;144.03;;;;;;;-144.77;100.00;59014.09;343829;28;873;-70
2022/04/05 00:39:53;;;;;;;372.17;142.10;;;;;;;-144.77;100.00;59014.09;341191;29;767;-70
2022/04/05 00:40:05;;;;;;;374.77;144.87;;;;;;;-144.77;100.00;59014.09;339767;29;1723;-71
2022/04/05 00:40:16;;;;;;;373.48;143.90;;;;;;;-144.77;100.00;59014.09;339458;29;1641;-71
2022/04/05 00:40:26;;;;;;;373.53;142.53;;;;;;;-144.77;100.00;59014.09;339654;29;1698;-70
2022/04/05 00:40:37;;;;;;;374.13;143.10;;;;;;;-144.77;100.00;59014.09;339741;29;1902;-70
2022/04/05 00:40:47;;;;;;;374.90;143.35;;;;;;;-144.77;100.00;59014.09;338405;29;1229;-70
2022/04/05 00:40:58;;;;;;;375.77;143.70;;;;;;;-144.77;100.00;59014.09;341153;29;889;-70
2022/04/05 00:41:08;;;;;;;375.10;141.97;;;;;;;-144.77;100.00;59014.09;343212;28;1292;-70
2022/04/05 00:41:18;;;;;;;376.53;143.13;;;;;;;-144.77;100.00;59014.09;343784;28;928;-70
2022/04/05 00:41:29;;;;;;;378.00;143.10;;;;;;;-144.77;100.00;59014.09;344651;28;1524;-70
2022/04/05 00:41:39;;;;;;;377.77;143.68;;;;;;;-144.77;100.00;59014.09;342295;28;2042;-70
2022/04/05 00:41:50;;;;;;;376.57;143.27;;;;;;;-144.77;100.00;59014.09;341139;29;854;-70
2022/04/05 00:42:00;;;;;;;375.80;143.85;;;;;;;-144.77;100.00;59014.09;341138;29;883;-70
2022/04/05 00:42:11;;;;;;;375.53;145.97;;;;;;;-144.77;100.00;59014.09;340180;28;1727;-70
2022/04/05 00:42:21;;;;;;;375.45;145.70;;;;;;;-144.77;100.00;59014.09;339848;29;1380;-70
2022/04/05 00:42:32;;;;;;;372.50;143.25;;;;;;;-144.77;100.00;59014.09;338421;29;1096;-70
2022/04/05 00:42:43;;;;;;;370.15;140.65;;;;;;;-144.77;100.00;59014.09;339891;29;1273;-70
2022/04/05 00:42:54;;;;;;;371.47;141.70;;;;;;;-144.77;100.00;59014.09;339815;29;782;-70
2022/04/05 00:43:05;;;;;;;373.35;143.35;;;;;;;-144.77;100.00;59014.09;340047;29;849;-70
2022/04/05 00:43:16;;;;;;;373.63;143.88;;;;;;;-144.77;100.00;59014.09;339696;29;1321;-70
2022/04/05 00:43:26;;;;;;;372.60;141.50;;;;;;;-144.77;100.00;59014.09;339022;29;1689;-70
2022/04/05 00:43:36;;;;;;;372.83;140.90;;;;;;;-144.77;100.00;59014.09;338442;29;905;-70
2022/04/05 00:43:47;;;;;;;373.73;140.70;;;;;;;-144.77;100.00;59014.09;339517;29;1631;-70
2022/04/05 00:43:57;;;;;;;374.02;143.90;;;;;;;-144.77;100.00;59014.09;339650;29;1975;-70
2022/04/05 00:44:08;;;;;;;374.63;144.83;;;;;;;-144.77;100.00;59014.09;341024;29;1523;-70
2022/04/05 00:44:18;;;;;;;376.45;145.18;;;;;;;-144.77;100.00;59014.09;341057;29;1837;-70
2022/04/05 00:44:28;;;;;;;380.30;145.87;;;;;;;-144.77;100.00;59014.09;340557;29;1338;-70
2022/04/05 00:44:39;;;;;;;380.65;146.05;;;;;;;-144.77;100.00;59014.09;339842;29;963;-70
2022/04/05 00:44:49;;;;;;;382.70;149.23;;;;;;;-144.77;100.00;59014.09;341179;29;1275;-70
2022/04/05 00:45:00;;;;;;;380.70;147.93;;;;;;;-144.77;100.00;59014.09;340983;29;1283;-70
2022/04/05 00:45:10;;;;;;;379.47;147.73;;;;;;;-144.77;100.00;59014.09;341283;29;771;-70
2022/04/05 00:45:21;;;;;;;374.63;141.97;;;;;;;-144.77;100.00;59014.09;341062;29;1199;-70
2022/04/05 00:45:34;;;;;;;370.77;140.27;;;;;;;-144.77;100.00;59014.09;341922;28;1589;-70
2022/04/05 00:45:44;;;;;;;371.27;141.32;;;;;;;-144.77;100.00;59014.09;341184;29;920;-70
2022/04/05 00:45:55;;;;;;;373.43;142.90;;;;;;;-144.77;100.00;59014.09;340905;29;1673;-70
2022/04/05 00:46:06;;;;;;;375.52;140.45;;;;;;;-144.77;100.00;59014.09;340804;29;1440;-70
2022/04/05 00:46:16;;;;;;;376.80;142.10;;;;;;;-144.77;100.00;59014.09;341701;28;1902;-70
2022/04/05 00:46:27;;;;;;;377.37;144.57;;;;;;;-144.77;100.00;59014.09;338400;29;1598;-70
2022/04/05 00:46:37;;;;;;;376.48;147.50;;;;;;;-144.77;100.00;59014.09;340643;29;2303;-70
2022/04/05 00:46:48;;;;;;;373.90;144.80;;;;;;;-144.77;100.00;59014.09;341013;29;1338;-70
2022/04/05 00:47:00;;;;;;;373.77;143.00;;;;;;;-144.77;100.00;59014.09;342538;28;929;-70
2022/04/05 00:47:20;;;;;;;373.73;143.57;;;;;;;-144.77;100.00;59014.09;342204;28;879;-70
2022/04/05 00:47:30;;;;;;;376.88;143.80;;;;;;;-144.77;100.00;59014.09;342231;28;1049;-70